sensor_id;sensor_type;location;lat;lon;timestamp;pressure;altitude;pressure_sealevel;temperature;humidity
34185;BME280;20454;48.100;11.776;2022-09-09T00:02:04;95228.00;;;14.10;97.45
34185;BME280;20454;48.100;11.776;2022-09-09T00:04:36;95226.72;;;14.08;97.51
34185;BME280;20454;48.100;11.776;2022-09-09T00:07:39;95230.22;;;14.05;97.47
34185;BME280;20454;48.100;11.776;2022-09-09T00:10:28;95228.13;;;14.02;98.23
34185;BME280;20454;48.100;11.776;2022-09-09T00:13:00;95226.84;;;13.99;97.95
34185;BME280;20454;48.100;11.776;2022-09-09T00:18:51;95228.38;;;13.97;97.90
34185;BME280;20454;48.100;11.776;2022-09-09T00:21:33;95229.88;;;13.94;98.83
34185;BME280;20454;48.100;11.776;2022-09-09T00:24:13;95223.81;;;13.92;98.61
34185;BME280;20454;48.100;11.776;2022-09-09T00:26:49;95225.91;;;13.95;98.37
34185;BME280;20454;48.100;11.776;2022-09-09T00:29:31;95223.56;;;13.97;98.92
34185;BME280;20454;48.100;11.776;2022-09-09T00:32:13;95227.19;;;13.98;98.57
34185;BME280;20454;48.100;11.776;2022-09-09T00:34:52;95223.47;;;13.94;99.17
34185;BME280;20454;48.100;11.776;2022-09-09T00:37:21;95225.47;;;13.93;99.39
34185;BME280;20454;48.100;11.776;2022-09-09T00:39:49;95228.38;;;13.97;99.48
34185;BME280;20454;48.100;11.776;2022-09-09T00:42:25;95224.84;;;14.00;99.58
34185;BME280;20454;48.100;11.776;2022-09-09T00:47:51;95227.78;;;14.03;100.00
34185;BME280;20454;48.100;11.776;2022-09-09T00:50:50;95232.31;;;14.08;99.83
34185;BME280;20454;48.100;11.776;2022-09-09T00:54:03;95234.44;;;14.11;100.00
34185;BME280;20454;48.100;11.776;2022-09-09T00:59:51;95240.72;;;14.20;100.00
34185;BME280;20454;48.100;11.776;2022-09-09T01:02:35;95234.41;;;14.23;100.00
34185;BME280;20454;48.100;11.776;2022-09-09T01:05:20;95238.50;;;14.25;100.00
34185;BME280;20454;48.100;11.776;2022-09-09T01:07:49;95239.78;;;14.28;100.00
34185;BME280;20454;48.100;11.776;2022-09-09T01:10:32;95244.44;;;14.36;100.00
34185;BME280;20454;48.100;11.776;2022-09-09T01:13:08;95234.97;;;14.40;99.85
34185;BME280;20454;48.100;11.776;2022-09-09T01:15:39;95222.97;;;14.40;99.54
34185;BME280;20454;48.100;11.776;2022-09-09T01:18:12;95228.41;;;14.48;99.35
34185;BME280;20454;48.100;11.776;2022-09-09T01:21:04;95221.78;;;14.53;97.18
34185;BME280;20454;48.100;11.776;2022-09-09T01:24:12;95228.28;;;14.57;96.44
34185;BME280;20454;48.100;11.776;2022-09-09T01:26:45;95224.31;;;14.58;95.51
34185;BME280;20454;48.100;11.776;2022-09-09T01:29:17;95221.19;;;14.59;95.26
34185;BME280;20454;48.100;11.776;2022-09-09T01:31:57;95231.69;;;14.62;95.34
34185;BME280;20454;48.100;11.776;2022-09-09T01:34:28;95228.16;;;14.65;94.77
34185;BME280;20454;48.100;11.776;2022-09-09T01:36:59;95227.81;;;14.67;94.61
34185;BME280;20454;48.100;11.776;2022-09-09T01:39:27;95223.84;;;14.68;94.12
34185;BME280;20454;48.100;11.776;2022-09-09T01:41:54;95219.53;;;14.70;94.14
34185;BME280;20454;48.100;11.776;2022-09-09T01:44:21;95223.13;;;14.71;93.91
34185;BME280;20454;48.100;11.776;2022-09-09T01:46:48;95231.53;;;14.71;93.76
34185;BME280;20454;48.100;11.776;2022-09-09T01:49:13;95229.66;;;14.75;93.69
34185;BME280;20454;48.100;11.776;2022-09-09T01:51:41;95243.31;;;14.76;92.97
34185;BME280;20454;48.100;11.776;2022-09-09T01:54:08;95230.44;;;14.75;92.88
34185;BME280;20454;48.100;11.776;2022-09-09T02:02:10;95229.75;;;14.78;94.74
34185;BME280;20454;48.100;11.776;2022-09-09T02:07:51;95226.13;;;14.77;94.11
34185;BME280;20454;48.100;11.776;2022-09-09T02:13:17;95223.09;;;14.82;93.63
34185;BME280;20454;48.100;11.776;2022-09-09T02:18:56;95219.47;;;14.82;93.74
34185;BME280;20454;48.100;11.776;2022-09-09T02:21:23;95221.91;;;14.83;93.43
34185;BME280;20454;48.100;11.776;2022-09-09T02:23:51;95212.22;;;14.81;93.95
34185;BME280;20454;48.100;11.776;2022-09-09T02:26:19;95215.03;;;14.81;94.35
34185;BME280;20454;48.100;11.776;2022-09-09T02:28:51;95213.31;;;14.77;94.99
34185;BME280;20454;48.100;11.776;2022-09-09T02:31:21;95215.66;;;14.75;95.84
34185;BME280;20454;48.100;11.776;2022-09-09T02:34:01;95216.00;;;14.73;95.68
34185;BME280;20454;48.100;11.776;2022-09-09T02:36:32;95222.78;;;14.72;95.67
34185;BME280;20454;48.100;11.776;2022-09-09T02:39:01;95222.78;;;14.72;95.18
34185;BME280;20454;48.100;11.776;2022-09-09T02:41:33;95210.28;;;14.70;95.08
34185;BME280;20454;48.100;11.776;2022-09-09T02:44:00;95212.41;;;14.73;95.16
34185;BME280;20454;48.100;11.776;2022-09-09T02:49:47;95218.44;;;14.75;95.06
34185;BME280;20454;48.100;11.776;2022-09-09T02:52:19;95215.66;;;14.75;95.94
34185;BME280;20454;48.100;11.776;2022-09-09T02:54:50;95211.91;;;14.71;96.14
34185;BME280;20454;48.100;11.776;2022-09-09T02:57:24;95207.94;;;14.72;97.00
34185;BME280;20454;48.100;11.776;2022-09-09T02:59:51;95205.97;;;14.72;97.08
34185;BME280;20454;48.100;11.776;2022-09-09T03:02:20;95201.19;;;14.73;97.29
34185;BME280;20454;48.100;11.776;2022-09-09T03:04:46;95213.19;;;14.73;97.03
34185;BME280;20454;48.100;11.776;2022-09-09T03:07:16;95215.19;;;14.73;97.39
34185;BME280;20454;48.100;11.776;2022-09-09T03:09:43;95219.63;;;14.74;96.97
34185;BME280;20454;48.100;11.776;2022-09-09T03:12:08;95210.84;;;14.75;96.56
34185;BME280;20454;48.100;11.776;2022-09-09T03:14:37;95203.16;;;14.72;96.90
34185;BME280;20454;48.100;11.776;2022-09-09T03:17:04;95205.53;;;14.70;97.07
34185;BME280;20454;48.100;11.776;2022-09-09T03:19:31;95196.28;;;14.70;97.38
34185;BME280;20454;48.100;11.776;2022-09-09T03:22:00;95190.25;;;14.68;97.81
34185;BME280;20454;48.100;11.776;2022-09-09T03:24:25;95197.00;;;14.67;98.81
34185;BME280;20454;48.100;11.776;2022-09-09T03:26:51;95187.22;;;14.61;99.08
34185;BME280;20454;48.100;11.776;2022-09-09T03:29:17;95193.19;;;14.59;99.75
34185;BME280;20454;48.100;11.776;2022-09-09T03:31:44;95193.91;;;14.56;99.81
34185;BME280;20454;48.100;11.776;2022-09-09T03:34:10;95189.81;;;14.54;100.00
34185;BME280;20454;48.100;11.776;2022-09-09T03:36:37;95188.19;;;14.53;100.00
34185;BME280;20454;48.100;11.776;2022-09-09T03:39:03;95184.81;;;14.47;100.00
34185;BME280;20454;48.100;11.776;2022-09-09T03:41:29;95180.63;;;14.41;100.00
34185;BME280;20454;48.100;11.776;2022-09-09T03:43:55;95191.81;;;14.41;100.00
34185;BME280;20454;48.100;11.776;2022-09-09T03:46:24;95183.31;;;14.38;100.00
34185;BME280;20454;48.100;11.776;2022-09-09T03:48:51;95189.63;;;14.35;100.00
34185;BME280;20454;48.100;11.776;2022-09-09T03:51:18;95189.53;;;14.31;100.00
34185;BME280;20454;48.100;11.776;2022-09-09T03:53:44;95193.03;;;14.28;100.00
34185;BME280;20454;48.100;11.776;2022-09-09T03:56:10;95181.63;;;14.21;100.00
34185;BME280;20454;48.100;11.776;2022-09-09T03:58:39;95184.28;;;14.18;100.00
34185;BME280;20454;48.100;11.776;2022-09-09T06:02:53;95195.94;;;14.98;100.00
34185;BME280;20454;48.100;11.776;2022-09-09T06:05:19;95195.22;;;15.01;100.00
34185;BME280;20454;48.100;11.776;2022-09-09T06:07:45;95195.88;;;15.10;100.00
34185;BME280;20454;48.100;11.776;2022-09-09T06:10:12;95181.13;;;15.13;100.00
34185;BME280;20454;48.100;11.776;2022-09-09T06:12:40;95197.34;;;15.20;100.00
34185;BME280;20454;48.100;11.776;2022-09-09T06:15:07;95196.72;;;15.26;100.00
34185;BME280;20454;48.100;11.776;2022-09-09T06:17:34;95192.38;;;15.29;100.00
34185;BME280;20454;48.100;11.776;2022-09-09T06:20:00;95192.38;;;15.29;100.00
34185;BME280;20454;48.100;11.776;2022-09-09T06:22:26;95200.44;;;15.30;100.00
34185;BME280;20454;48.100;11.776;2022-09-09T06:24:51;95201.63;;;15.29;100.00
34185;BME280;20454;48.100;11.776;2022-09-09T06:53:17;95213.06;;;15.36;98.53
34185;BME280;20454;48.100;11.776;2022-09-09T06:55:45;95216.75;;;15.40;98.73
34185;BME280;20454;48.100;11.776;2022-09-09T06:58:11;95200.31;;;15.39;99.23
34185;BME280;20454;48.100;11.776;2022-09-09T07:00:36;95208.63;;;15.51;99.22
34185;BME280;20454;48.100;11.776;2022-09-09T07:03:05;95205.13;;;15.54;98.78
34185;BME280;20454;48.100;11.776;2022-09-09T07:07:59;95215.34;;;15.62;97.96
34185;BME280;20454;48.100;11.776;2022-09-09T13:26:58;95240.44;;;21.71;64.43
34185;BME280;20454;48.100;11.776;2022-09-09T13:29:24;95244.00;;;21.61;63.35
34185;BME280;20454;48.100;11.776;2022-09-09T13:31:50;95241.91;;;21.44;61.55
34185;BME280;20454;48.100;11.776;2022-09-09T13:34:33;95239.84;;;21.38;61.94
34185;BME280;20454;48.100;11.776;2022-09-09T13:37:13;95236.50;;;21.18;60.42
34185;BME280;20454;48.100;11.776;2022-09-09T13:39:52;95227.56;;;21.06;62.73
34185;BME280;20454;48.100;11.776;2022-09-09T13:42:27;95241.63;;;20.95;65.50
34185;BME280;20454;48.100;11.776;2022-09-09T13:44:55;95233.81;;;20.78;65.66
34185;BME280;20454;48.100;11.776;2022-09-09T13:47:35;95237.72;;;20.57;62.78
34185;BME280;20454;48.100;11.776;2022-09-09T13:50:22;95236.78;;;20.46;64.66
34185;BME280;20454;48.100;11.776;2022-09-09T13:52:53;95232.63;;;20.29;65.73
34185;BME280;20454;48.100;11.776;2022-09-09T13:55:24;95234.19;;;20.27;68.32
34185;BME280;20454;48.100;11.776;2022-09-09T13:57:56;95233.28;;;20.12;65.67
34185;BME280;20454;48.100;11.776;2022-09-09T14:00:23;95228.63;;;19.97;66.58
34185;BME280;20454;48.100;11.776;2022-09-09T14:02:52;95224.88;;;19.83;67.73
34185;BME280;20454;48.100;11.776;2022-09-09T14:05:21;95225.56;;;19.73;67.20
34185;BME280;20454;48.100;11.776;2022-09-09T14:07:48;95225.41;;;19.59;66.88
34185;BME280;20454;48.100;11.776;2022-09-09T14:10:15;95222.81;;;19.43;69.52
34185;BME280;20454;48.100;11.776;2022-09-09T14:12:40;95222.16;;;19.24;68.20
34185;BME280;20454;48.100;11.776;2022-09-09T14:15:09;95220.78;;;19.14;69.07
34185;BME280;20454;48.100;11.776;2022-09-09T14:17:35;95226.25;;;19.00;70.13
34185;BME280;20454;48.100;11.776;2022-09-09T14:20:05;95222.97;;;18.95;69.16
34185;BME280;20454;48.100;11.776;2022-09-09T14:22:36;95218.00;;;18.85;71.77
34185;BME280;20454;48.100;11.776;2022-09-09T14:25:02;95213.06;;;18.78;70.69
34185;BME280;20454;48.100;11.776;2022-09-09T14:27:28;95220.75;;;18.81;71.95
34185;BME280;20454;48.100;11.776;2022-09-09T14:29:55;95220.31;;;18.79;70.90
34185;BME280;20454;48.100;11.776;2022-09-09T14:32:21;95227.69;;;18.87;71.01
34185;BME280;20454;48.100;11.776;2022-09-09T14:34:47;95229.47;;;18.99;71.79
34185;BME280;20454;48.100;11.776;2022-09-09T14:37:17;95229.56;;;19.06;71.48
34185;BME280;20454;48.100;11.776;2022-09-09T14:39:43;95230.81;;;19.08;71.85
34185;BME280;20454;48.100;11.776;2022-09-09T14:42:13;95232.03;;;19.11;69.91
34185;BME280;20454;48.100;11.776;2022-09-09T14:44:39;95233.31;;;19.17;71.02
34185;BME280;20454;48.100;11.776;2022-09-09T14:47:07;95232.69;;;19.27;71.69
34185;BME280;20454;48.100;11.776;2022-09-09T14:49:35;95238.81;;;19.32;71.03
34185;BME280;20454;48.100;11.776;2022-09-09T16:14:58;95196.66;;;18.09;82.86
34185;BME280;20454;48.100;11.776;2022-09-09T16:17:25;95194.72;;;18.13;82.72
34185;BME280;20454;48.100;11.776;2022-09-09T16:19:50;95196.78;;;18.16;82.57
34185;BME280;20454;48.100;11.776;2022-09-09T16:22:16;95200.00;;;18.15;81.22
34185;BME280;20454;48.100;11.776;2022-09-09T16:24:43;95202.75;;;18.11;79.06
34185;BME280;20454;48.100;11.776;2022-09-09T16:27:10;95201.78;;;18.04;76.77
34185;BME280;20454;48.100;11.776;2022-09-09T16:29:37;95201.31;;;17.98;77.87
34185;BME280;20454;48.100;11.776;2022-09-09T16:32:02;95197.19;;;17.92;77.60
34185;BME280;20454;48.100;11.776;2022-09-09T16:34:29;95208.38;;;17.89;78.66
34185;BME280;20454;48.100;11.776;2022-09-09T16:36:54;95208.31;;;17.85;78.85
34185;BME280;20454;48.100;11.776;2022-09-09T16:39:20;95198.56;;;17.79;80.27
34185;BME280;20454;48.100;11.776;2022-09-09T16:41:47;95191.69;;;17.77;80.82
34185;BME280;20454;48.100;11.776;2022-09-09T16:44:16;95190.06;;;17.76;81.38
34185;BME280;20454;48.100;11.776;2022-09-09T16:46:45;95182.41;;;17.76;81.14
34185;BME280;20454;48.100;11.776;2022-09-09T16:49:13;95188.84;;;17.77;81.62
34185;BME280;20454;48.100;11.776;2022-09-09T16:51:49;95188.56;;;17.82;81.17
34185;BME280;20454;48.100;11.776;2022-09-09T16:54:16;95184.97;;;17.85;81.57
34185;BME280;20454;48.100;11.776;2022-09-09T16:56:46;95185.50;;;17.90;80.31
34185;BME280;20454;48.100;11.776;2022-09-09T16:59:15;95177.97;;;17.98;80.46
34185;BME280;20454;48.100;11.776;2022-09-09T17:01:43;95186.16;;;18.06;80.56
34185;BME280;20454;48.100;11.776;2022-09-09T17:04:19;95181.25;;;18.03;81.17
34185;BME280;20454;48.100;11.776;2022-09-09T17:06:51;95184.41;;;17.98;80.74
34185;BME280;20454;48.100;11.776;2022-09-09T17:09:18;95191.50;;;17.89;80.31
34185;BME280;20454;48.100;11.776;2022-09-09T17:11:45;95192.94;;;17.79;79.84
34185;BME280;20454;48.100;11.776;2022-09-09T17:14:16;95194.31;;;17.66;80.06
34185;BME280;20454;48.100;11.776;2022-09-09T17:16:42;95194.09;;;17.56;80.90
34185;BME280;20454;48.100;11.776;2022-09-09T17:19:09;95195.81;;;17.41;81.32
34185;BME280;20454;48.100;11.776;2022-09-09T18:18:36;95253.16;;;15.25;96.99
34185;BME280;20454;48.100;11.776;2022-09-09T18:21:07;95243.16;;;15.12;97.63
34185;BME280;20454;48.100;11.776;2022-09-09T18:23:38;95251.09;;;15.10;98.02
34185;BME280;20454;48.100;11.776;2022-09-09T18:26:14;95253.78;;;15.06;98.58
34185;BME280;20454;48.100;11.776;2022-09-09T18:28:42;95250.44;;;15.01;99.01
34185;BME280;20454;48.100;11.776;2022-09-09T18:31:11;95252.34;;;14.97;99.57
34185;BME280;20454;48.100;11.776;2022-09-09T18:33:40;95266.69;;;14.95;99.58
34185;BME280;20454;48.100;11.776;2022-09-09T18:36:10;95256.44;;;14.88;99.96
34185;BME280;20454;48.100;11.776;2022-09-09T18:38:37;95259.25;;;14.88;100.00
34185;BME280;20454;48.100;11.776;2022-09-09T18:41:20;95261.94;;;14.84;100.00
34185;BME280;20454;48.100;11.776;2022-09-09T18:43:48;95260.56;;;14.78;100.00
34185;BME280;20454;48.100;11.776;2022-09-09T18:46:15;95254.28;;;14.69;100.00
34185;BME280;20454;48.100;11.776;2022-09-09T18:48:42;95255.09;;;14.70;100.00
34185;BME280;20454;48.100;11.776;2022-09-09T18:51:12;95265.00;;;14.67;100.00
34185;BME280;20454;48.100;11.776;2022-09-09T18:53:39;95261.66;;;14.62;100.00
34185;BME280;20454;48.100;11.776;2022-09-09T18:56:10;95271.69;;;14.63;100.00
34185;BME280;20454;48.100;11.776;2022-09-09T18:58:38;95271.91;;;14.58;100.00
34185;BME280;20454;48.100;11.776;2022-09-09T19:01:09;95277.88;;;14.56;100.00
34185;BME280;20454;48.100;11.776;2022-09-09T19:03:36;95283.84;;;14.55;100.00
34185;BME280;20454;48.100;11.776;2022-09-09T19:06:06;95283.38;;;14.53;100.00
34185;BME280;20454;48.100;11.776;2022-09-09T19:08:37;95284.91;;;14.50;100.00
34185;BME280;20454;48.100;11.776;2022-09-09T19:11:06;95292.34;;;14.46;100.00
34185;BME280;20454;48.100;11.776;2022-09-09T19:13:33;95295.03;;;14.43;100.00
34185;BME280;20454;48.100;11.776;2022-09-09T19:16:11;95291.31;;;14.39;100.00
34185;BME280;20454;48.100;11.776;2022-09-09T19:18:38;95293.31;;;14.38;100.00
34185;BME280;20454;48.100;11.776;2022-09-09T19:21:26;95297.03;;;14.30;100.00
34185;BME280;20454;48.100;11.776;2022-09-09T19:26:34;95302.53;;;14.27;100.00
34185;BME280;20454;48.100;11.776;2022-09-09T19:29:14;95304.88;;;14.25;100.00
34185;BME280;20454;48.100;11.776;2022-09-09T19:31:42;95311.97;;;14.22;100.00
34185;BME280;20454;48.100;11.776;2022-09-09T19:34:08;95309.72;;;14.16;100.00
34185;BME280;20454;48.100;11.776;2022-09-09T19:36:34;95323.06;;;14.19;100.00
34185;BME280;20454;48.100;11.776;2022-09-09T19:39:00;95316.00;;;14.13;100.00
34185;BME280;20454;48.100;11.776;2022-09-09T19:41:28;95325.69;;;14.15;100.00
34185;BME280;20454;48.100;11.776;2022-09-09T19:44:02;95346.91;;;14.16;100.00
34185;BME280;20454;48.100;11.776;2022-09-09T19:46:32;95367.56;;;14.24;100.00
34185;BME280;20454;48.100;11.776;2022-09-09T19:48:59;95370.84;;;14.26;100.00
34185;BME280;20454;48.100;11.776;2022-09-09T19:51:27;95367.69;;;14.27;100.00
34185;BME280;20454;48.100;11.776;2022-09-09T19:54:09;95368.97;;;14.30;100.00
34185;BME280;20454;48.100;11.776;2022-09-09T19:56:38;95371.78;;;14.30;100.00
34185;BME280;20454;48.100;11.776;2022-09-09T19:59:08;95374.94;;;14.28;100.00
34185;BME280;20454;48.100;11.776;2022-09-09T20:01:41;95370.72;;;14.34;100.00
34185;BME280;20454;48.100;11.776;2022-09-09T20:04:12;95378.66;;;14.32;99.73
34185;BME280;20454;48.100;11.776;2022-09-09T20:06:41;95374.69;;;14.33;99.45
34185;BME280;20454;48.100;11.776;2022-09-09T20:09:13;95373.88;;;14.33;99.65
34185;BME280;20454;48.100;11.776;2022-09-09T20:11:40;95370.72;;;14.34;100.00
34185;BME280;20454;48.100;11.776;2022-09-09T20:14:06;95378.78;;;14.36;100.00
34185;BME280;20454;48.100;11.776;2022-09-09T20:16:32;95374.81;;;14.37;100.00
34185;BME280;20454;48.100;11.776;2022-09-09T20:19:04;95381.25;;;14.37;100.00
34185;BME280;20454;48.100;11.776;2022-09-09T20:21:36;95377.28;;;14.38;100.00
34185;BME280;20454;48.100;11.776;2022-09-09T20:24:07;95376.09;;;14.39;100.00
34185;BME280;20454;48.100;11.776;2022-09-09T20:26:35;95374.81;;;14.37;99.95
34185;BME280;20454;48.100;11.776;2022-09-09T20:29:07;95380.91;;;14.39;100.00
34185;BME280;20454;48.100;11.776;2022-09-09T20:31:36;95371.56;;;14.35;100.00
34185;BME280;20454;48.100;11.776;2022-09-09T20:34:06;95377.50;;;14.33;100.00
34185;BME280;20454;48.100;11.776;2022-09-09T20:36:35;95379.38;;;14.29;100.00
34185;BME280;20454;48.100;11.776;2022-09-09T20:39:05;95379.25;;;14.26;100.00
34185;BME280;20454;48.100;11.776;2022-09-09T20:41:34;95368.97;;;14.18;100.00
34185;BME280;20454;48.100;11.776;2022-09-09T20:44:13;95369.84;;;14.10;100.00
34185;BME280;20454;48.100;11.776;2022-09-09T20:46:43;95364.84;;;14.03;100.00
34185;BME280;20454;48.100;11.776;2022-09-09T20:49:13;95380.66;;;13.99;100.00
34185;BME280;20454;48.100;11.776;2022-09-09T20:51:41;95378.47;;;13.93;100.00
34185;BME280;20454;48.100;11.776;2022-09-09T20:54:15;95369.34;;;13.84;100.00
34185;BME280;20454;48.100;11.776;2022-09-09T20:56:43;95380.41;;;13.80;100.00
34185;BME280;20454;48.100;11.776;2022-09-09T20:59:29;95375.88;;;13.76;100.00
34185;BME280;20454;48.100;11.776;2022-09-09T21:01:59;95383.63;;;13.70;100.00
34185;BME280;20454;48.100;11.776;2022-09-09T21:04:26;95391.56;;;13.68;100.00
34185;BME280;20454;48.100;11.776;2022-09-09T21:06:52;95382.22;;;13.64;100.00
34185;BME280;20454;48.100;11.776;2022-09-09T21:09:19;95386.50;;;13.62;100.00
34185;BME280;20454;48.100;11.776;2022-09-09T21:11:47;95382.44;;;13.59;100.00
34185;BME280;20454;48.100;11.776;2022-09-09T21:14:13;95386.88;;;13.60;100.00
34185;BME280;20454;48.100;11.776;2022-09-09T21:16:39;95386.03;;;13.60;100.00
34185;BME280;20454;48.100;11.776;2022-09-09T21:19:04;95383.13;;;13.56;100.00
34185;BME280;20454;48.100;11.776;2022-09-09T21:21:31;95385.56;;;13.58;100.00
34185;BME280;20454;48.100;11.776;2022-09-09T21:23:57;95391.16;;;13.58;100.00
34185;BME280;20454;48.100;11.776;2022-09-09T21:26:25;95401.19;;;13.59;100.00
34185;BME280;20454;48.100;11.776;2022-09-09T21:28:51;95403.28;;;13.62;100.00
34185;BME280;20454;48.100;11.776;2022-09-09T21:31:19;95402.16;;;13.63;100.00
34185;BME280;20454;48.100;11.776;2022-09-09T21:33:45;95409.84;;;13.66;100.00
34185;BME280;20454;48.100;11.776;2022-09-09T21:36:13;95410.78;;;13.70;100.00
34185;BME280;20454;48.100;11.776;2022-09-09T21:38:39;95413.72;;;13.73;100.00
34185;BME280;20454;48.100;11.776;2022-09-09T21:41:11;95429.00;;;13.76;100.00
34185;BME280;20454;48.100;11.776;2022-09-09T21:43:38;95421.53;;;13.80;100.00
34185;BME280;20454;48.100;11.776;2022-09-09T21:46:10;95445.66;;;13.84;100.00
34185;BME280;20454;48.100;11.776;2022-09-09T21:48:36;95451.50;;;13.91;100.00
34185;BME280;20454;48.100;11.776;2022-09-09T21:51:06;95452.81;;;13.94;99.35
34185;BME280;20454;48.100;11.776;2022-09-09T21:53:33;95455.06;;;14.00;97.83
34185;BME280;20454;48.100;11.776;2022-09-09T21:56:08;95445.75;;;14.08;96.79
34185;BME280;20454;48.100;11.776;2022-09-09T21:58:35;95453.56;;;14.15;96.09
34185;BME280;20454;48.100;11.776;2022-09-09T22:01:01;95441.84;;;14.21;95.33
34185;BME280;20454;48.100;11.776;2022-09-09T22:03:27;95447.34;;;14.30;95.39
34185;BME280;20454;48.100;11.776;2022-09-09T22:05:53;95460.41;;;14.38;95.50
34185;BME280;20454;48.100;11.776;2022-09-09T22:08:19;95456.22;;;14.44;95.25
34185;BME280;20454;48.100;11.776;2022-09-09T22:10:45;95451.13;;;14.46;95.62
34185;BME280;20454;48.100;11.776;2022-09-09T22:13:13;95449.94;;;14.47;97.06
34185;BME280;20454;48.100;11.776;2022-09-09T22:15:46;95449.34;;;14.41;98.87
34185;BME280;20454;48.100;11.776;2022-09-09T22:18:13;95450.97;;;14.30;98.97
34185;BME280;20454;48.100;11.776;2022-09-09T22:20:44;95441.50;;;14.23;100.00
34185;BME280;20454;48.100;11.776;2022-09-09T22:23:11;95446.47;;;14.17;100.00
34185;BME280;20454;48.100;11.776;2022-09-09T22:25:38;95449.34;;;14.09;100.00
34185;BME280;20454;48.100;11.776;2022-09-09T22:28:07;95441.66;;;14.06;100.00
34185;BME280;20454;48.100;11.776;2022-09-09T22:30:33;95425.94;;;14.01;100.00
34185;BME280;20454;48.100;11.776;2022-09-09T22:32:59;95417.28;;;13.94;100.00
34185;BME280;20454;48.100;11.776;2022-09-09T22:35:26;95413.66;;;13.94;100.00
34185;BME280;20454;48.100;11.776;2022-09-09T22:37:52;95407.59;;;13.92;100.00
34185;BME280;20454;48.100;11.776;2022-09-09T22:40:18;95415.53;;;13.90;100.00
34185;BME280;20454;48.100;11.776;2022-09-09T22:42:44;95423.09;;;13.89;100.00
34185;BME280;20454;48.100;11.776;2022-09-09T22:45:10;95418.06;;;13.83;100.00
34185;BME280;20454;48.100;11.776;2022-09-09T22:47:37;95424.34;;;13.80;100.00
34185;BME280;20454;48.100;11.776;2022-09-09T22:50:08;95427.69;;;13.73;100.00
34185;BME280;20454;48.100;11.776;2022-09-09T22:52:34;95430.38;;;13.70;100.00
34185;BME280;20454;48.100;11.776;2022-09-09T22:55:00;95430.91;;;13.63;100.00
34185;BME280;20454;48.100;11.776;2022-09-09T22:57:26;95419.59;;;13.60;100.00
34185;BME280;20454;48.100;11.776;2022-09-09T22:59:52;95425.50;;;13.58;100.00
34185;BME280;20454;48.100;11.776;2022-09-09T23:02:18;95421.31;;;13.52;100.00
34185;BME280;20454;48.100;11.776;2022-09-09T23:04:47;95416.59;;;13.44;100.00
34185;BME280;20454;48.100;11.776;2022-09-09T23:07:13;95426.00;;;13.40;100.00
34185;BME280;20454;48.100;11.776;2022-09-09T23:09:39;95425.09;;;13.36;100.00
34185;BME280;20454;48.100;11.776;2022-09-09T23:12:05;95433.66;;;13.31;100.00
34185;BME280;20454;48.100;11.776;2022-09-09T23:14:33;95433.53;;;13.27;100.00
34185;BME280;20454;48.100;11.776;2022-09-09T23:16:59;95414.59;;;13.12;100.00
34185;BME280;20454;48.100;11.776;2022-09-09T23:19:27;95422.63;;;13.14;100.00
34185;BME280;20454;48.100;11.776;2022-09-09T23:21:53;95431.69;;;13.11;100.00
34185;BME280;20454;48.100;11.776;2022-09-09T23:24:19;95423.50;;;13.06;100.00
34185;BME280;20454;48.100;11.776;2022-09-09T23:26:45;95420.41;;;12.99;100.00
34185;BME280;20454;48.100;11.776;2022-09-09T23:29:12;95414.19;;;12.93;100.00
34185;BME280;20454;48.100;11.776;2022-09-09T23:31:41;95415.34;;;12.92;100.00
34185;BME280;20454;48.100;11.776;2022-09-09T23:34:10;95415.53;;;12.87;100.00
34185;BME280;20454;48.100;11.776;2022-09-09T23:36:37;95414.25;;;12.85;100.00
34185;BME280;20454;48.100;11.776;2022-09-09T23:39:05;95405.59;;;12.78;100.00
34185;BME280;20454;48.100;11.776;2022-09-09T23:41:32;95396.47;;;12.69;100.00
34185;BME280;20454;48.100;11.776;2022-09-09T23:43:59;95409.41;;;12.73;100.00
34185;BME280;20454;48.100;11.776;2022-09-09T23:46:28;95413.69;;;12.71;100.00
34185;BME280;20454;48.100;11.776;2022-09-09T23:48:55;95408.31;;;12.66;100.00
34185;BME280;20454;48.100;11.776;2022-09-09T23:51:24;95400.59;;;12.63;100.00
34185;BME280;20454;48.100;11.776;2022-09-09T23:53:53;95404.06;;;12.60;100.00
34185;BME280;20454;48.100;11.776;2022-09-09T23:56:25;95402.31;;;12.55;100.00
34185;BME280;20454;48.100;11.776;2022-09-09T23:58:52;95395.59;;;12.48;100.00
